createdAt,value
2022-12-06T00:08:33.107Z,28.10
2022-12-06T00:11:07.343Z,28.02
2022-12-06T00:16:00.957Z,28.50
2022-12-06T00:18:27.765Z,28.25
2022-12-06T00:23:19.910Z,29.05
2022-12-06T00:25:46.650Z,30.25
2022-12-06T00:28:13.332Z,29.30
2022-12-06T00:30:40.081Z,28.67
2022-12-06T00:33:06.789Z,28.70
2022-12-06T00:35:33.575Z,30.42
2022-12-06T00:38:00.225Z,30.33
2022-12-06T00:40:27.601Z,30.70
2022-12-06T00:47:45.225Z,32.60
2022-12-06T00:50:12.119Z,33.05
2022-12-06T00:57:29.869Z,36.55
2022-12-06T00:59:56.827Z,36.28
2022-12-06T01:02:23.714Z,35.42
2022-12-06T01:04:50.474Z,32.83
2022-12-06T01:07:17.227Z,31.45
2022-12-06T01:12:09.386Z,32.67
2022-12-06T01:14:36.059Z,31.45
2022-12-06T01:17:02.867Z,33.17
2022-12-06T01:19:29.659Z,32.35
2022-12-06T01:21:56.246Z,33.20
2022-12-06T01:24:22.939Z,34.28
2022-12-06T01:26:49.561Z,32.55
2022-12-06T01:29:16.325Z,31.48
2022-12-06T01:34:14.053Z,30.15
2022-12-06T01:36:40.777Z,32.80
2022-12-06T01:39:10.638Z,36.85
2022-12-06T01:41:38.524Z,35.67
2022-12-06T01:44:05.962Z,32.20
2022-12-06T01:49:14.002Z,29.73
2022-12-06T01:51:43.978Z,29.92
2022-12-06T01:54:11.965Z,28.02
2022-12-06T01:56:38.984Z,27.38
2022-12-06T01:59:06.529Z,28.83
2022-12-06T02:01:34.125Z,26.38
2022-12-06T02:04:04.147Z,28.13
2022-12-06T02:06:31.941Z,27.77
2022-12-06T02:08:59.499Z,29.02
2022-12-06T02:11:29.453Z,29.55
2022-12-06T02:16:30.334Z,26.52
2022-12-06T02:19:05.932Z,26.77
2022-12-06T02:21:38.579Z,27.67
2022-12-06T02:26:50.449Z,27.15
2022-12-06T02:29:35.898Z,28.35
2022-12-06T02:32:05.341Z,26.52
2022-12-06T02:37:22.805Z,27.48
2022-12-06T02:39:49.547Z,26.33
2022-12-06T02:42:17.523Z,28.42
2022-12-06T02:47:20.857Z,26.08
2022-12-06T02:52:24.236Z,26.45
2022-12-06T02:54:51.905Z,26.10
2022-12-06T02:57:19.930Z,27.15
2022-12-06T02:59:53.412Z,26.08
2022-12-06T03:02:20.644Z,26.42
2022-12-06T03:07:37.082Z,27.08
2022-12-06T03:10:10.868Z,27.38
2022-12-06T03:12:55.972Z,26.55
2022-12-06T03:15:22.664Z,29.38
2022-12-06T03:17:51.738Z,27.45
2022-12-06T03:23:09.331Z,26.77
2022-12-06T03:25:36.217Z,27.00
2022-12-06T03:30:31.862Z,27.42
2022-12-06T03:32:58.784Z,26.42
2022-12-06T03:35:28.627Z,26.00
2022-12-06T03:40:30.516Z,25.23
2022-12-06T03:42:57.850Z,26.08
2022-12-06T03:45:28.424Z,25.52
2022-12-06T03:50:31.161Z,24.13
2022-12-06T03:52:59.729Z,24.02
2022-12-06T03:55:26.367Z,26.23
2022-12-06T03:57:53.072Z,26.55
2022-12-06T04:00:19.773Z,27.02
2022-12-06T04:02:46.497Z,26.73
2022-12-06T04:05:13.161Z,25.88
2022-12-06T04:07:39.890Z,28.38
2022-12-06T04:12:52.360Z,26.63
2022-12-06T04:15:19.882Z,28.08
2022-12-06T04:18:05.044Z,27.40
2022-12-06T04:23:17.053Z,26.73
2022-12-06T04:25:43.883Z,27.65
2022-12-06T04:31:15.852Z,28.02
2022-12-06T04:34:05.201Z,27.52
2022-12-06T04:36:50.510Z,29.13
2022-12-06T04:49:17.627Z,26.67
2022-12-06T04:51:44.328Z,27.67
2022-12-06T04:54:11.050Z,28.55
2022-12-06T04:56:37.669Z,28.23
2022-12-06T04:59:04.606Z,29.27
2022-12-06T05:01:31.305Z,28.52
2022-12-06T05:03:57.926Z,29.02
2022-12-06T05:06:24.637Z,29.45
2022-12-06T05:08:51.431Z,30.25
2022-12-06T05:11:18.026Z,29.00
2022-12-06T05:13:44.791Z,27.88
2022-12-06T05:16:12.115Z,29.38
2022-12-06T05:18:38.983Z,28.98
2022-12-06T05:26:03.008Z,29.63
2022-12-06T05:35:47.876Z,28.48
2022-12-06T05:38:14.597Z,28.08
2022-12-06T05:40:42.113Z,27.75
2022-12-06T05:47:59.799Z,29.52
2022-12-06T05:50:26.514Z,28.30
2022-12-06T05:52:57.002Z,27.50
2022-12-06T05:55:23.721Z,25.60
2022-12-06T05:57:50.823Z,26.27
2022-12-06T06:02:43.716Z,25.20
2022-12-06T06:05:10.639Z,26.02
2022-12-06T06:07:37.312Z,27.70
2022-12-06T06:10:05.132Z,25.30
2022-12-06T06:12:31.816Z,25.85
2022-12-06T06:19:51.595Z,24.60
2022-12-06T06:24:44.742Z,28.65
2022-12-06T06:27:11.620Z,32.45
2022-12-06T06:29:43.603Z,33.75
2022-12-06T06:32:12.759Z,34.58
2022-12-06T06:41:58.776Z,33.42
2022-12-06T06:44:25.494Z,33.42
2022-12-06T06:46:52.109Z,30.10
2022-12-06T06:49:18.937Z,27.95
2022-12-06T06:51:45.714Z,26.90
2022-12-06T06:54:12.669Z,28.10
2022-12-06T06:56:39.288Z,28.15
2022-12-06T06:59:06.585Z,28.30
2022-12-06T07:01:33.439Z,26.60
2022-12-06T07:04:00.232Z,28.55
2022-12-06T07:06:26.996Z,34.53
2022-12-06T07:08:53.574Z,33.28
2022-12-06T07:11:20.164Z,34.25
2022-12-06T07:13:51.186Z,31.88
2022-12-06T07:16:19.528Z,33.90
2022-12-06T07:21:14.380Z,36.38
2022-12-06T07:23:41.346Z,34.38
2022-12-06T07:26:10.445Z,31.08
2022-12-06T07:28:37.508Z,33.97
2022-12-06T07:31:07.820Z,31.85
2022-12-06T07:33:34.538Z,31.42
2022-12-06T07:38:26.542Z,31.13
2022-12-06T07:41:04.631Z,28.77
2022-12-06T07:43:50.174Z,27.35
2022-12-06T07:46:16.883Z,29.10
2022-12-06T07:48:43.656Z,25.15
2022-12-06T07:51:10.282Z,27.30
2022-12-06T07:53:36.929Z,26.92
2022-12-06T07:56:03.489Z,26.48
2022-12-06T07:58:30.161Z,25.00
2022-12-06T08:00:57.405Z,27.95
2022-12-06T08:03:23.994Z,28.50
2022-12-06T08:05:54.350Z,27.08
2022-12-06T08:08:26.720Z,27.17
2022-12-06T08:10:54.998Z,28.00
2022-12-06T08:13:21.657Z,28.73
2022-12-06T08:15:48.359Z,27.58
2022-12-06T08:23:05.819Z,28.83
2022-12-06T08:25:32.542Z,33.63
2022-12-06T08:27:59.171Z,36.10
2022-12-06T08:30:25.839Z,35.58
2022-12-06T08:32:52.481Z,37.53
2022-12-06T08:35:19.165Z,33.30
2022-12-06T08:37:45.798Z,32.35
2022-12-06T08:40:12.444Z,36.20
2022-12-06T08:45:05.617Z,38.25
2022-12-06T08:47:32.436Z,38.05
2022-12-06T08:52:24.708Z,38.83
2022-12-06T08:54:51.398Z,43.28
2022-12-06T08:57:18.116Z,46.70
2022-12-06T08:59:44.756Z,49.22
2022-12-06T09:02:12.336Z,43.88
2022-12-06T09:07:10.070Z,41.05
2022-12-06T09:09:38.286Z,33.90
2022-12-06T09:12:05.041Z,40.70
2022-12-06T09:14:31.737Z,38.97
2022-12-06T09:16:58.411Z,37.92
2022-12-06T09:19:25.007Z,40.92
2022-12-06T09:21:51.690Z,40.05
2022-12-06T09:24:18.688Z,40.85
2022-12-06T09:26:45.377Z,36.45
2022-12-06T09:29:12.365Z,34.88
2022-12-06T09:31:40.480Z,37.85
2022-12-06T09:34:11.561Z,37.55
2022-12-06T09:36:41.946Z,37.97
2022-12-06T09:41:45.745Z,38.53
2022-12-06T09:44:31.140Z,37.47
2022-12-06T09:47:16.430Z,35.17
2022-12-06T09:50:00.677Z,35.17
2022-12-06T09:52:46.543Z,34.53
2022-12-06T09:55:16.949Z,38.22
2022-12-06T09:57:46.637Z,33.42
2022-12-06T10:00:22.675Z,31.60
2022-12-06T10:03:07.973Z,32.08
2022-12-06T10:05:52.806Z,32.30
2022-12-06T10:08:38.342Z,31.25
2022-12-06T10:14:00.561Z,31.40
2022-12-06T10:21:51.010Z,31.45
2022-12-06T10:24:20.753Z,34.38
2022-12-06T10:29:29.730Z,34.53
2022-12-06T10:31:58.720Z,35.25
2022-12-06T10:34:49.082Z,36.72
2022-12-06T10:37:22.065Z,36.42
2022-12-06T10:44:53.928Z,34.53
2022-12-06T10:47:23.418Z,34.08
2022-12-06T10:49:59.404Z,36.40
2022-12-06T10:52:41.462Z,37.72
2022-12-06T10:55:11.069Z,37.17
2022-12-06T10:57:43.766Z,38.60
2022-12-06T11:00:15.755Z,37.80
2022-12-06T11:02:50.280Z,36.60
2022-12-06T11:10:18.959Z,37.05
2022-12-06T11:12:45.945Z,38.40
2022-12-06T11:15:16.365Z,39.30
2022-12-06T11:35:39.606Z,40.03
2022-12-06T11:38:07.320Z,38.90
2022-12-06T11:40:33.910Z,38.67
2022-12-06T11:43:02.041Z,33.95
2022-12-06T11:47:59.386Z,34.55
2022-12-06T11:50:29.038Z,33.10
2022-12-06T11:53:00.441Z,32.70
2022-12-06T11:55:37.849Z,30.83
2022-12-06T11:58:09.690Z,28.92
2022-12-06T12:00:36.763Z,30.35
2022-12-06T12:03:03.963Z,29.10
2022-12-06T12:05:34.410Z,32.55
2022-12-06T12:08:01.207Z,30.20
2022-12-06T12:10:31.110Z,27.83
2022-12-06T12:18:00.019Z,29.60
2022-12-06T12:20:28.482Z,29.20
2022-12-06T12:23:00.209Z,24.40
2022-12-06T12:25:31.453Z,22.30
2022-12-06T12:27:59.337Z,23.35
2022-12-06T12:35:28.888Z,21.83
2022-12-06T12:37:57.298Z,21.45
2022-12-06T12:40:25.697Z,18.33
2022-12-06T12:42:59.713Z,14.68
2022-12-06T12:45:27.785Z,15.38
2022-12-06T12:48:02.238Z,16.38
2022-12-06T12:50:30.003Z,15.45
2022-12-06T12:52:56.946Z,15.27
2022-12-06T12:58:00.507Z,15.90
2022-12-06T13:00:32.778Z,23.85
2022-12-06T13:03:14.201Z,18.35
2022-12-06T13:05:52.497Z,18.98
2022-12-06T13:08:22.071Z,14.93
2022-12-06T13:10:54.124Z,16.92
2022-12-06T13:13:29.035Z,18.10
2022-12-06T13:15:56.833Z,17.70
2022-12-06T13:18:23.466Z,19.85
2022-12-06T13:20:50.815Z,17.80
2022-12-06T13:23:19.180Z,17.80
2022-12-06T13:28:26.815Z,18.08
2022-12-06T13:30:56.972Z,19.45
2022-12-06T13:33:25.505Z,17.17
2022-12-06T13:35:57.642Z,19.17
2022-12-06T13:40:56.008Z,18.10
2022-12-06T13:43:25.576Z,18.15
2022-12-06T13:45:53.313Z,18.80
2022-12-06T13:48:40.292Z,17.55
2022-12-06T13:51:29.872Z,15.55
2022-12-06T13:54:05.673Z,15.75
2022-12-06T13:56:35.146Z,18.52
2022-12-06T13:59:03.183Z,17.60
2022-12-06T14:01:36.976Z,17.73
2022-12-06T14:06:56.562Z,19.20
2022-12-06T14:09:25.368Z,20.10
2022-12-06T14:11:53.249Z,19.67
2022-12-06T14:14:21.950Z,15.55
2022-12-06T14:16:53.048Z,14.05
2022-12-06T14:19:21.111Z,20.63
2022-12-06T14:22:11.030Z,17.42
2022-12-06T14:24:39.973Z,15.02
2022-12-06T14:27:06.682Z,14.20
2022-12-06T14:29:33.495Z,15.50
2022-12-06T14:32:00.236Z,16.13
2022-12-06T14:34:28.385Z,15.45
2022-12-06T14:36:55.333Z,16.25
2022-12-06T14:42:17.548Z,16.67
2022-12-06T14:47:16.986Z,18.20
2022-12-06T14:50:02.655Z,18.05
2022-12-06T14:52:30.475Z,19.33
2022-12-06T14:57:44.065Z,19.02
2022-12-06T15:08:25.959Z,19.40
2022-12-06T15:11:00.864Z,20.02
2022-12-06T15:16:26.178Z,20.40
2022-12-06T15:21:23.613Z,21.25
2022-12-06T15:23:51.316Z,21.25
2022-12-06T15:26:19.388Z,20.80
2022-12-06T15:28:46.553Z,20.90
2022-12-06T15:31:18.148Z,20.33
2022-12-06T15:36:15.710Z,17.90
2022-12-06T15:38:42.660Z,18.83
2022-12-06T15:48:30.602Z,17.25
2022-12-06T15:50:59.942Z,19.80
2022-12-06T15:53:27.547Z,22.02
2022-12-06T15:55:54.582Z,18.80
2022-12-06T15:58:26.705Z,18.50
2022-12-06T16:03:20.705Z,17.80
2022-12-06T16:05:47.533Z,18.33
2022-12-06T16:11:10.409Z,18.13
2022-12-06T16:15:53.334Z,18.65
2022-12-06T16:18:20.475Z,18.45
2022-12-06T16:20:47.588Z,17.05
2022-12-06T16:33:19.778Z,27.63
2022-12-06T16:35:46.716Z,28.88
2022-12-06T16:38:14.351Z,27.10
2022-12-06T16:40:41.380Z,24.80
2022-12-06T16:43:08.224Z,26.05
2022-12-06T16:45:36.303Z,24.65
2022-12-06T16:48:03.720Z,30.83
2022-12-06T16:50:30.643Z,40.00
2022-12-06T16:52:57.297Z,35.60
2022-12-06T16:55:24.027Z,37.67
2022-12-06T16:57:50.688Z,34.97
2022-12-06T17:07:41.102Z,36.88
2022-12-06T17:10:08.363Z,42.92
2022-12-06T17:15:07.295Z,47.47
2022-12-06T17:17:34.221Z,42.38
2022-12-06T17:24:52.100Z,38.55
2022-12-06T17:27:18.855Z,37.03
2022-12-06T17:29:45.794Z,39.20
2022-12-06T17:32:13.118Z,41.45
2022-12-06T17:37:06.241Z,38.92
2022-12-06T17:39:32.946Z,35.38
2022-12-06T17:42:18.137Z,31.98
2022-12-06T17:50:32.389Z,31.10
2022-12-06T17:52:59.189Z,35.30
2022-12-06T17:55:25.934Z,38.40
2022-12-06T17:57:52.614Z,39.88
2022-12-06T18:00:19.511Z,38.08
2022-12-06T18:02:46.285Z,33.75
2022-12-06T18:07:39.531Z,34.88
2022-12-06T18:10:06.645Z,39.92
2022-12-06T18:14:59.094Z,42.50
2022-12-06T18:17:26.379Z,41.78
2022-12-06T18:19:53.048Z,44.42
2022-12-06T18:22:20.423Z,39.83
2022-12-06T18:24:47.075Z,30.67
2022-12-06T18:27:13.711Z,27.33
2022-12-06T18:29:40.382Z,29.17
2022-12-06T18:32:07.202Z,37.60
2022-12-06T18:34:33.950Z,33.10
2022-12-06T18:37:00.722Z,31.20
2022-12-06T18:39:28.186Z,30.52
2022-12-06T18:46:47.015Z,24.92
2022-12-06T18:51:39.692Z,34.45
2022-12-06T18:54:09.975Z,32.30
2022-12-06T18:56:36.762Z,38.15
2022-12-06T18:59:07.325Z,32.20
2022-12-06T19:01:35.785Z,29.33
2022-12-06T19:13:56.899Z,39.25
2022-12-06T19:16:28.723Z,36.63
2022-12-06T19:18:56.410Z,35.60
2022-12-06T19:21:23.806Z,35.17
2022-12-06T19:23:54.472Z,36.25
2022-12-06T19:26:21.609Z,40.50
2022-12-06T19:28:48.689Z,39.42
2022-12-06T19:31:15.586Z,35.47
2022-12-06T19:33:43.622Z,32.28
2022-12-06T19:36:14.547Z,32.88
2022-12-06T19:48:47.378Z,33.10
2022-12-06T19:51:17.119Z,35.45
2022-12-06T19:53:43.939Z,35.00
2022-12-06T19:56:12.243Z,35.58
2022-12-06T19:58:39.534Z,44.10
2022-12-06T20:01:15.637Z,45.63
2022-12-06T20:03:43.385Z,41.70
2022-12-06T20:06:17.905Z,38.33
2022-12-06T20:08:45.851Z,35.88
2022-12-06T20:11:32.517Z,35.65
2022-12-06T20:21:16.874Z,49.65
2022-12-06T20:26:09.310Z,42.30
2022-12-06T20:28:37.795Z,38.92
2022-12-06T20:31:09.862Z,31.70
2022-12-06T20:33:39.254Z,30.10
2022-12-06T20:36:15.299Z,32.75
2022-12-06T20:38:41.979Z,32.10
2022-12-06T20:41:09.808Z,33.80
2022-12-06T20:43:37.195Z,35.45
2022-12-06T20:46:08.701Z,33.42
2022-12-06T20:53:33.010Z,34.67
2022-12-06T20:56:06.765Z,33.22
2022-12-06T20:58:33.644Z,37.45
2022-12-06T21:01:00.581Z,39.80
2022-12-06T21:03:28.093Z,41.38
2022-12-06T21:05:59.048Z,34.38
2022-12-06T21:08:25.967Z,33.80
2022-12-06T21:11:21.206Z,33.03
2022-12-06T21:13:39.966Z,31.73
2022-12-06T21:16:08.141Z,28.02
2022-12-06T21:18:35.535Z,28.08
2022-12-06T21:21:02.692Z,28.05
2022-12-06T21:23:29.646Z,31.50
2022-12-06T21:25:56.358Z,28.40
2022-12-06T21:28:23.272Z,32.53
2022-12-06T21:30:51.521Z,25.63
2022-12-06T21:33:18.980Z,26.58
2022-12-06T21:35:45.777Z,28.23
2022-12-06T21:40:38.494Z,28.80
2022-12-06T21:43:05.894Z,30.63
2022-12-06T21:45:35.914Z,28.55
2022-12-06T21:48:02.570Z,31.13
2022-12-06T21:50:29.280Z,31.88
2022-12-06T21:52:55.912Z,29.25
2022-12-06T21:57:48.164Z,36.65
2022-12-06T22:00:15.537Z,34.55
2022-12-06T22:02:42.612Z,29.85
2022-12-06T22:05:09.559Z,27.42
2022-12-06T22:07:36.277Z,26.73
2022-12-06T22:10:03.345Z,23.85
2022-12-06T22:12:30.174Z,30.70
2022-12-06T22:14:56.884Z,26.98
2022-12-06T22:19:49.135Z,25.92
2022-12-06T22:22:15.902Z,24.45
2022-12-06T22:29:33.395Z,32.60
2022-12-06T22:32:00.095Z,36.42
2022-12-06T22:34:26.725Z,38.67
2022-12-06T22:36:53.336Z,32.60
2022-12-06T22:39:20.110Z,31.65
2022-12-06T22:41:46.770Z,28.30
2022-12-06T22:44:13.592Z,32.33
2022-12-06T22:51:32.443Z,30.75
2022-12-06T22:54:06.866Z,38.47
2022-12-06T22:56:33.727Z,44.33
2022-12-06T22:59:01.243Z,40.30
2022-12-06T23:06:27.015Z,33.80
2022-12-06T23:08:54.314Z,28.75
2022-12-06T23:11:22.466Z,27.98
2022-12-06T23:13:49.110Z,29.15
2022-12-06T23:18:45.365Z,34.60
2022-12-06T23:21:13.691Z,33.80
2022-12-06T23:26:11.493Z,41.05
2022-12-06T23:28:38.474Z,31.38
2022-12-06T23:33:31.968Z,25.55
2022-12-06T23:41:28.602Z,29.92
2022-12-06T23:43:55.800Z,29.58
2022-12-06T23:46:30.946Z,31.67
2022-12-06T23:48:58.239Z,34.80
2022-12-06T23:51:26.777Z,32.65
2022-12-06T23:53:57.583Z,32.10
2022-12-06T23:56:25.029Z,30.30
2022-12-06T23:58:52.033Z,32.83
